PWSweather.com
Personal Weather Stations
Station Observations
KKSTOPEK1
South Central , Topeka, KS 66611

South Central Topeka, KS 66611

Lat: 39.02605, Lon: -95.70868

Elevation: 945

Station Type: Davis Vantage Vue

http://www.wxstation.us/weather/index.php

Latest ConditionsUpdated 2:55:04 AM CDT Thursday, Jul 18, 2019
Currently Today's Max Today's Min Today's Average
Temperature 81.9°F27.7°C 85.3°F29.6°C 81.9°F27.7°C 83.5°F28.6°C
Dew Point 70.7°F21.5°C 72.6°F22.6°C 70.7°F21.5°C 71.9°F22.2°C
Winds 2.7 mph SSW4.3 kmh SSW 3.5 mph -5.6 kmh - - 2.3 mph 3.7 kmh
Wind Gusts 7.0 mph11.3 kmh 10.2 mph16.4 kmh - -
Humidity 69% 69% 66% 68%
Pressure 29.83 in1010.2 mb 29.86 in1011.2 mb 29.80 in1009.1 mb -
Hour Temp Dew Point Humidity Winds Wind Gusts Pressure Precip Precip Rate Daily Precip Total
02:55 AM 81.9°F27.7°C 70.7°F21.5°C 69% 2.7 mph SSW4.3 kmh SSW 7.0 mph11.3 kmh 29.83 in1010.2 mb 0.00 in0.0 mm 0.00 in0.0 mm 0.00 in0.0 mm
02:50 AM 81.9°F27.7°C 70.7°F21.5°C 69% 2.7 mph S4.3 kmh S 7.0 mph11.3 kmh 29.83 in1010.2 mb 0.00 in0.0 mm 0.00 in0.0 mm 0.00 in0.0 mm
02:45 AM 81.9°F27.7°C 70.7°F21.5°C 69% 2.4 mph S3.9 kmh S 7.0 mph11.3 kmh 29.83 in1010.2 mb 0.00 in0.0 mm 0.00 in0.0 mm 0.00 in0.0 mm
02:40 AM 82.0°F27.8°C 70.9°F21.6°C 69% 2.4 mph S3.9 kmh S 7.4 mph11.9 kmh 29.80 in1009.1 mb 0.00 in0.0 mm 0.00 in0.0 mm 0.00 in0.0 mm
02:35 AM 82.2°F27.9°C 71.0°F21.7°C 69% 2.7 mph S4.3 kmh S 10.2 mph16.4 kmh 29.80 in1009.1 mb 0.00 in0.0 mm 0.00 in0.0 mm 0.00 in0.0 mm
02:30 AM 82.4°F28.0°C 71.2°F21.8°C 69% 2.8 mph S4.5 kmh S 10.2 mph16.4 kmh 29.80 in1009.1 mb 0.00 in0.0 mm 0.00 in0.0 mm 0.00 in0.0 mm
02:25 AM 82.4°F28.0°C 71.2°F21.8°C 69% 3.0 mph S4.8 kmh S 7.0 mph11.3 kmh 29.83 in1010.2 mb 0.00 in0.0 mm 0.00 in0.0 mm 0.00 in0.0 mm
02:20 AM 82.4°F28.0°C 71.2°F21.8°C 69% 2.6 mph S4.2 kmh S 7.0 mph11.3 kmh 29.83 in1010.2 mb 0.00 in0.0 mm 0.00 in0.0 mm 0.00 in0.0 mm
02:15 AM 82.6°F28.1°C 71.4°F21.9°C 69% 2.3 mph S3.7 kmh S 7.0 mph11.3 kmh 29.83 in1010.2 mb 0.00 in0.0 mm 0.00 in0.0 mm 0.00 in0.0 mm
02:10 AM 82.8°F28.2°C 71.5°F21.9°C 69% 2.9 mph S4.7 kmh S 6.0 mph9.7 kmh 29.80 in1009.1 mb 0.00 in0.0 mm 0.00 in0.0 mm 0.00 in0.0 mm
02:05 AM 82.8°F28.2°C 71.5°F21.9°C 69% 2.8 mph S4.5 kmh S 7.0 mph11.3 kmh 29.80 in1009.1 mb 0.00 in0.0 mm 0.00 in0.0 mm 0.00 in0.0 mm
02:00 AM 82.9°F28.3°C 71.7°F22.1°C 69% 2.1 mph S3.4 kmh S 7.0 mph11.3 kmh 29.80 in1009.1 mb 0.00 in0.0 mm 0.00 in0.0 mm 0.00 in0.0 mm
01:55 AM 82.9°F28.3°C 71.7°F22.1°C 69% 2.2 mph SSE3.5 kmh SSE 6.5 mph10.5 kmh 29.83 in1010.2 mb 0.00 in0.0 mm 0.00 in0.0 mm 0.00 in0.0 mm
01:50 AM 82.9°F28.3°C 71.7°F22.1°C 69% 3.1 mph S5.0 kmh S 6.5 mph10.5 kmh 29.83 in1010.2 mb 0.00 in0.0 mm 0.00 in0.0 mm 0.00 in0.0 mm
01:45 AM 83.1°F28.4°C 71.9°F22.2°C 69% 2.4 mph S3.9 kmh S 6.5 mph10.5 kmh 29.83 in1010.2 mb 0.00 in0.0 mm 0.00 in0.0 mm 0.00 in0.0 mm
01:40 AM 83.1°F28.4°C 71.9°F22.2°C 69% 1.3 mph S2.1 kmh S 6.5 mph10.5 kmh 29.83 in1010.2 mb 0.00 in0.0 mm 0.00 in0.0 mm 0.00 in0.0 mm
01:35 AM 83.3°F28.5°C 72.1°F22.3°C 69% 1.6 mph S2.6 kmh S 4.5 mph7.2 kmh 29.83 in1010.2 mb 0.00 in0.0 mm 0.00 in0.0 mm 0.00 in0.0 mm
01:30 AM 83.5°F28.6°C 72.2°F22.3°C 69% 3.0 mph S4.8 kmh S 9.2 mph14.8 kmh 29.83 in1010.2 mb 0.00 in0.0 mm 0.00 in0.0 mm 0.00 in0.0 mm
01:25 AM 83.7°F28.7°C 72.4°F22.4°C 69% 3.5 mph S5.6 kmh S 9.2 mph14.8 kmh 29.83 in1010.2 mb 0.00 in0.0 mm 0.00 in0.0 mm 0.00 in0.0 mm
01:20 AM 83.7°F28.7°C 72.4°F22.4°C 69% 2.8 mph S4.5 kmh S 8.9 mph14.3 kmh 29.83 in1010.2 mb 0.00 in0.0 mm 0.00 in0.0 mm 0.00 in0.0 mm
01:15 AM 83.7°F28.7°C 72.4°F22.4°C 69% 3.0 mph S4.8 kmh S 8.9 mph14.3 kmh 29.83 in1010.2 mb 0.00 in0.0 mm 0.00 in0.0 mm 0.00 in0.0 mm
01:10 AM 83.7°F28.7°C 72.4°F22.4°C 69% 2.9 mph S4.7 kmh S 7.0 mph11.3 kmh 29.83 in1010.2 mb 0.00 in0.0 mm 0.00 in0.0 mm 0.00 in0.0 mm
01:05 AM 83.8°F28.8°C 72.6°F22.6°C 69% 1.8 mph S2.9 kmh S 6.5 mph10.5 kmh 29.83 in1010.2 mb 0.00 in0.0 mm 0.00 in0.0 mm 0.00 in0.0 mm
01:00 AM 83.8°F28.8°C 72.1°F22.3°C 68% 1.4 mph SSW2.3 kmh SSW 6.0 mph9.7 kmh 29.83 in1010.2 mb 0.00 in0.0 mm 0.00 in0.0 mm 0.00 in0.0 mm
12:55 AM 84.0°F28.9°C 72.3°F22.4°C 68% 2.2 mph S3.5 kmh S 7.9 mph12.7 kmh 29.86 in1011.2 mb 0.00 in0.0 mm 0.00 in0.0 mm 0.00 in0.0 mm
12:50 AM 84.2°F29.0°C 72.0°F22.2°C 67% 2.5 mph S4.0 kmh S 7.9 mph12.7 kmh 29.86 in1011.2 mb 0.00 in0.0 mm 0.00 in0.0 mm 0.00 in0.0 mm
12:45 AM 84.2°F29.0°C 72.0°F22.2°C 67% 1.8 mph S2.9 kmh S 7.9 mph12.7 kmh 29.86 in1011.2 mb 0.00 in0.0 mm 0.00 in0.0 mm 0.00 in0.0 mm
12:40 AM 84.4°F29.1°C 72.2°F22.3°C 67% 1.5 mph SSE2.4 kmh SSE 4.5 mph7.2 kmh 29.83 in1010.2 mb 0.00 in0.0 mm 0.00 in0.0 mm 0.00 in0.0 mm
12:35 AM 84.6°F29.2°C 72.4°F22.4°C 67% 1.4 mph SSE2.3 kmh SSE 6.0 mph9.7 kmh 29.83 in1010.2 mb 0.00 in0.0 mm 0.00 in0.0 mm 0.00 in0.0 mm
12:30 AM 84.7°F29.3°C 72.6°F22.6°C 67% 1.6 mph S2.6 kmh S 6.0 mph9.7 kmh 29.83 in1010.2 mb 0.00 in0.0 mm 0.00 in0.0 mm 0.00 in0.0 mm
12:25 AM 84.7°F29.3°C 72.1°F22.3°C 66% 1.4 mph S2.3 kmh S 4.5 mph7.2 kmh 29.83 in1010.2 mb 0.00 in0.0 mm 0.00 in0.0 mm 0.00 in0.0 mm
12:20 AM 84.7°F29.3°C 72.1°F22.3°C 66% 0.9 mph S1.4 kmh S 5.5 mph8.9 kmh 29.83 in1010.2 mb 0.00 in0.0 mm 0.00 in0.0 mm 0.00 in0.0 mm
12:15 AM 85.1°F29.5°C 72.5°F22.5°C 66% 1.0 mph S1.6 kmh S 6.0 mph9.7 kmh 29.83 in1010.2 mb 0.00 in0.0 mm 0.00 in0.0 mm 0.00 in0.0 mm
12:10 AM 85.3°F29.6°C 72.6°F22.6°C 66% 2.3 mph S3.7 kmh S 6.5 mph10.5 kmh 29.83 in1010.2 mb 0.00 in0.0 mm 0.00 in0.0 mm 0.00 in0.0 mm
12:05 AM 85.3°F29.6°C 72.6°F22.6°C 66% 3.3 mph SSE5.3 kmh SSE 6.5 mph10.5 kmh 29.83 in1010.2 mb 0.00 in0.0 mm 0.00 in0.0 mm 0.00 in0.0 mm
12:00 AM 85.1°F29.5°C 72.5°F22.5°C 66% 2.4 mph SE3.9 kmh SE 6.5 mph10.5 kmh 29.83 in1010.2 mb 0.00 in0.0 mm 0.00 in0.0 mm 0.00 in0.0 mm